createdAt,value
2018-09-14T00:00:38.041Z,0.00
2018-09-14T00:02:31.353Z,0.00
2018-09-14T00:03:31.307Z,0.00
2018-09-14T00:05:24.598Z,0.00
2018-09-14T00:06:24.573Z,0.00
2018-09-14T00:08:17.373Z,0.00
2018-09-14T00:09:17.337Z,0.00
2018-09-14T00:11:10.645Z,0.00
2018-09-14T00:12:10.597Z,0.00
2018-09-14T00:14:03.933Z,0.00
2018-09-14T00:15:03.872Z,0.00
2018-09-14T00:16:57.199Z,0.00
2018-09-14T00:17:57.157Z,0.00
2018-09-14T00:19:50.453Z,0.00
2018-09-14T00:20:50.413Z,0.00
2018-09-14T00:22:43.728Z,0.00
2018-09-14T00:23:43.677Z,0.00
2018-09-14T00:25:36.482Z,0.00
2018-09-14T00:26:36.449Z,0.00
2018-09-14T00:28:29.764Z,0.00
2018-09-14T00:29:29.714Z,0.00
2018-09-14T00:31:23.014Z,0.00
2018-09-14T00:32:22.973Z,0.00
2018-09-14T00:34:16.283Z,0.00
2018-09-14T00:35:16.242Z,0.00
2018-09-14T00:37:09.559Z,0.00
2018-09-14T00:38:09.518Z,0.00
2018-09-14T00:40:02.818Z,0.00
2018-09-14T00:41:02.773Z,0.00
2018-09-14T00:42:55.608Z,0.00
2018-09-14T00:43:55.557Z,0.00
2018-09-14T00:45:48.842Z,0.00
2018-09-14T00:46:48.818Z,0.00
2018-09-14T00:48:42.118Z,0.00
2018-09-14T00:49:42.079Z,0.00
2018-09-14T00:51:35.374Z,0.00
2018-09-14T00:52:35.344Z,0.00
2018-09-14T00:54:28.649Z,0.00
2018-09-14T00:55:28.606Z,0.00
2018-09-14T00:57:21.905Z,0.00
2018-09-14T00:58:21.874Z,0.00
2018-09-14T01:00:15.193Z,0.00
2018-09-14T01:01:15.130Z,0.00
2018-09-14T01:03:08.448Z,0.00
2018-09-14T01:04:08.405Z,0.00
2018-09-14T01:06:01.216Z,0.00
2018-09-14T01:07:01.169Z,0.00
2018-09-14T01:08:54.474Z,0.00
2018-09-14T01:09:54.434Z,0.00
2018-09-14T01:11:47.744Z,0.00
2018-09-14T01:12:47.696Z,0.00
2018-09-14T01:14:41.014Z,0.00
2018-09-14T01:15:40.964Z,0.00
2018-09-14T01:17:33.769Z,0.00
2018-09-14T01:18:33.756Z,0.00
2018-09-14T01:20:26.555Z,0.00
2018-09-14T01:21:26.506Z,0.00
2018-09-14T01:23:19.817Z,0.00
2018-09-14T01:24:19.766Z,0.00
2018-09-14T01:26:13.077Z,0.00
2018-09-14T01:27:13.025Z,0.00
2018-09-14T01:29:05.860Z,0.00
2018-09-14T01:30:05.795Z,0.00
2018-09-14T01:31:58.617Z,0.00
2018-09-14T01:32:58.552Z,0.00
2018-09-14T01:34:51.879Z,0.00
2018-09-14T01:35:51.825Z,0.00
2018-09-14T01:37:44.646Z,0.00
2018-09-14T01:38:44.589Z,0.00
2018-09-14T01:40:37.901Z,0.00
2018-09-14T01:41:37.857Z,0.00
2018-09-14T01:43:31.156Z,0.00
2018-09-14T01:44:31.111Z,0.00
2018-09-14T01:46:24.432Z,0.00
2018-09-14T01:47:24.382Z,0.00
2018-09-14T01:49:17.186Z,0.00
2018-09-14T01:50:17.151Z,0.00
2018-09-14T01:52:09.965Z,0.00
2018-09-14T01:53:09.919Z,0.00
2018-09-14T01:55:03.212Z,0.00
2018-09-14T01:56:03.173Z,0.00
2018-09-14T01:57:55.997Z,0.00
2018-09-14T01:58:55.947Z,0.00
2018-09-14T02:00:49.260Z,0.00
2018-09-14T02:01:49.207Z,0.00
2018-09-14T02:03:42.030Z,0.00
2018-09-14T02:04:41.978Z,0.00
2018-09-14T02:06:34.791Z,0.00
2018-09-14T02:07:34.747Z,0.00
2018-09-14T02:09:27.559Z,0.00
2018-09-14T02:10:27.520Z,0.00
2018-09-14T02:12:20.327Z,0.00
2018-09-14T02:13:20.278Z,0.00
2018-09-14T02:15:13.593Z,0.00
2018-09-14T02:16:13.551Z,0.00
2018-09-14T02:18:06.369Z,0.00
2018-09-14T02:19:06.326Z,0.00
2018-09-14T02:20:59.116Z,0.00
2018-09-14T02:21:59.087Z,0.00
2018-09-14T02:23:51.913Z,0.00
2018-09-14T02:24:51.851Z,0.00
2018-09-14T02:26:45.163Z,0.00
2018-09-14T02:27:45.112Z,0.00
2018-09-14T02:29:37.937Z,0.00
2018-09-14T02:30:37.879Z,0.00
2018-09-14T02:32:30.697Z,0.00
2018-09-14T02:33:30.647Z,0.00
2018-09-14T02:35:23.944Z,0.00
2018-09-14T02:36:23.908Z,0.00
2018-09-14T02:38:16.724Z,0.00
2018-09-14T02:39:16.672Z,0.00
2018-09-14T02:41:09.971Z,0.00
2018-09-14T02:42:09.937Z,0.00
2018-09-14T02:44:02.752Z,0.00
2018-09-14T02:45:02.702Z,0.00
2018-09-14T02:46:56.008Z,0.00
2018-09-14T02:47:55.969Z,0.00
2018-09-14T02:49:49.284Z,0.00
2018-09-14T02:50:49.228Z,0.00
2018-09-14T02:52:42.563Z,0.00
2018-09-14T02:53:42.504Z,0.00
2018-09-14T02:55:35.795Z,0.00
2018-09-14T02:56:35.760Z,0.00
2018-09-14T02:58:29.070Z,0.00
2018-09-14T02:59:29.020Z,0.00
2018-09-14T03:01:22.320Z,0.00
2018-09-14T03:02:22.285Z,0.00
2018-09-14T03:04:15.586Z,0.00
2018-09-14T03:05:15.544Z,0.00
2018-09-14T03:07:08.840Z,0.00
2018-09-14T03:08:08.808Z,0.00
2018-09-14T03:10:02.114Z,0.00
2018-09-14T03:11:02.064Z,0.00
2018-09-14T03:12:54.975Z,0.00
2018-09-14T03:13:54.829Z,0.00
2018-09-14T03:15:48.139Z,0.00
2018-09-14T03:16:48.089Z,0.00
2018-09-14T03:18:41.405Z,0.00
2018-09-14T03:19:41.341Z,0.00
2018-09-14T03:21:34.673Z,0.00
2018-09-14T03:22:34.605Z,0.00
2018-09-14T03:24:27.440Z,0.00
2018-09-14T03:25:27.385Z,0.00
2018-09-14T03:27:20.195Z,0.00
2018-09-14T03:28:20.144Z,0.00
2018-09-14T03:30:12.973Z,0.00
2018-09-14T03:31:12.911Z,0.00
2018-09-14T03:33:05.716Z,0.00
2018-09-14T03:34:05.675Z,0.00
2018-09-14T03:35:58.990Z,0.00
2018-09-14T03:36:58.939Z,0.00
2018-09-14T03:38:51.753Z,0.00
2018-09-14T03:39:51.713Z,0.00
2018-09-14T03:41:44.539Z,0.00
2018-09-14T03:42:44.486Z,0.00
2018-09-14T03:44:37.782Z,0.00
2018-09-14T03:45:37.741Z,0.00
2018-09-14T03:47:30.564Z,0.00
2018-09-14T03:48:30.510Z,0.00
2018-09-14T03:50:23.315Z,0.00
2018-09-14T03:51:23.280Z,0.00
2018-09-14T03:53:16.093Z,0.00
2018-09-14T03:54:16.046Z,0.00
2018-09-14T03:56:09.355Z,0.00
2018-09-14T03:57:09.343Z,0.00
2018-09-14T03:59:02.119Z,0.00
2018-09-14T04:00:02.077Z,0.00
2018-09-14T04:01:54.889Z,0.00
2018-09-14T04:02:54.836Z,0.00
2018-09-14T04:04:47.636Z,0.00
2018-09-14T04:05:47.645Z,0.00
2018-09-14T04:07:40.439Z,0.00
2018-09-14T04:08:40.369Z,0.00
2018-09-14T04:10:33.180Z,0.00
2018-09-14T04:11:33.136Z,0.00
2018-09-14T04:13:25.960Z,0.00
2018-09-14T04:14:25.907Z,0.00
2018-09-14T04:16:19.203Z,0.00
2018-09-14T04:17:19.175Z,0.00
2018-09-14T04:19:11.981Z,0.00
2018-09-14T04:20:11.926Z,0.00
2018-09-14T04:22:05.221Z,0.00
2018-09-14T04:23:05.195Z,0.00
2018-09-14T04:24:58.496Z,0.00
2018-09-14T04:25:58.454Z,0.00
2018-09-14T04:27:51.269Z,0.00
2018-09-14T04:28:51.221Z,0.00
2018-09-14T04:30:44.023Z,0.00
2018-09-14T04:31:43.984Z,0.00
2018-09-14T04:33:36.817Z,0.00
2018-09-14T04:34:36.746Z,0.00
2018-09-14T04:36:30.042Z,0.00
2018-09-14T04:37:30.013Z,0.00
2018-09-14T04:39:23.327Z,0.00
2018-09-14T04:40:23.278Z,0.00
2018-09-14T04:42:16.077Z,0.00
2018-09-14T04:43:16.048Z,0.00
2018-09-14T04:45:08.852Z,4.00
2018-09-14T04:46:08.831Z,0.00
2018-09-14T04:48:02.124Z,4.00
2018-09-14T04:49:02.089Z,4.00
2018-09-14T04:50:55.404Z,8.00
2018-09-14T04:51:55.352Z,8.00
2018-09-14T04:53:48.255Z,8.00
2018-09-14T04:54:48.150Z,8.00
2018-09-14T04:56:41.439Z,12.00
2018-09-14T04:57:41.398Z,16.00
2018-09-14T04:59:34.714Z,24.00
2018-09-14T05:00:34.655Z,24.00
2018-09-14T05:02:27.953Z,32.00
2018-09-14T05:03:27.923Z,36.00
2018-09-14T05:05:20.739Z,44.00
2018-09-14T05:06:20.689Z,48.00
2018-09-14T05:08:13.998Z,64.00
2018-09-14T05:09:13.951Z,68.00
2018-09-14T05:11:06.771Z,80.00
2018-09-14T05:12:06.729Z,88.00
2018-09-14T05:14:00.020Z,104.00
2018-09-14T05:14:59.993Z,116.00
2018-09-14T05:16:52.789Z,136.00
2018-09-14T05:17:52.744Z,144.00
2018-09-14T05:19:45.561Z,168.00
2018-09-14T05:20:45.536Z,180.00
2018-09-14T05:22:38.810Z,200.00
2018-09-14T05:23:38.770Z,208.00
2018-09-14T05:25:32.076Z,228.00
2018-09-14T05:26:32.026Z,232.00
2018-09-14T05:28:24.825Z,252.00
2018-09-14T05:29:24.796Z,264.00
2018-09-14T05:31:17.616Z,276.00
2018-09-14T05:32:17.556Z,276.00
2018-09-14T05:34:10.370Z,292.00
2018-09-14T05:35:10.329Z,304.00
2018-09-14T05:37:03.635Z,328.00
2018-09-14T05:38:03.604Z,332.00
2018-09-14T05:39:56.421Z,344.00
2018-09-14T05:40:56.366Z,348.00
2018-09-14T05:42:49.175Z,356.00
2018-09-14T05:43:49.135Z,364.00
2018-09-14T05:45:42.497Z,396.00
2018-09-14T05:46:42.416Z,404.00
2018-09-14T05:48:35.712Z,432.00
2018-09-14T05:49:35.681Z,452.00
2018-09-14T05:51:29.006Z,488.00
2018-09-14T05:52:28.948Z,500.00
2018-09-14T05:54:21.769Z,532.00
2018-09-14T05:55:21.697Z,548.00
2018-09-14T05:57:14.535Z,588.00
2018-09-14T05:58:14.478Z,612.00
2018-09-14T06:00:07.785Z,636.00
2018-09-14T06:01:07.754Z,656.00
2018-09-14T06:03:01.062Z,692.00
2018-09-14T06:04:01.008Z,720.00
2018-09-14T06:05:54.310Z,772.00
2018-09-14T06:06:54.264Z,796.00
2018-09-14T06:08:47.591Z,832.00
2018-09-14T06:09:47.536Z,856.00
2018-09-14T06:11:40.853Z,880.00
2018-09-14T06:12:40.801Z,888.00
2018-09-14T06:14:34.089Z,908.00
2018-09-14T06:15:34.062Z,924.00
2018-09-14T06:17:26.969Z,968.00
2018-09-14T06:18:26.867Z,996.00
2018-09-14T06:20:20.113Z,1048.00
2018-09-14T06:21:20.089Z,1064.00
2018-09-14T06:23:13.400Z,1100.00
2018-09-14T06:24:13.353Z,1128.00
2018-09-14T06:26:07.644Z,1184.00
2018-09-14T06:27:07.608Z,1208.00
2018-09-14T06:29:00.937Z,1236.00
2018-09-14T06:30:00.878Z,1244.00
2018-09-14T06:31:54.183Z,1276.00
2018-09-14T06:32:54.151Z,1304.00
2018-09-14T06:34:46.974Z,1380.00
2018-09-14T06:35:46.916Z,1428.00
2018-09-14T06:37:40.240Z,1480.00
2018-09-14T06:38:40.187Z,1488.00
2018-09-14T06:40:32.998Z,1500.00
2018-09-14T06:41:32.944Z,1524.00
2018-09-14T06:43:26.289Z,1604.00
2018-09-14T06:44:26.243Z,1672.00
2018-09-14T06:46:19.047Z,1736.00
2018-09-14T06:47:19.017Z,1744.00
2018-09-14T06:49:11.832Z,1780.00
2018-09-14T06:50:11.787Z,1848.00
2018-09-14T06:52:05.160Z,2004.00
2018-09-14T06:53:05.040Z,2020.00
2018-09-14T06:54:57.873Z,1984.00
2018-09-14T06:55:57.814Z,1984.00
2018-09-14T06:57:50.629Z,2104.00
2018-09-14T06:58:50.575Z,2164.00
2018-09-14T07:00:43.876Z,2136.00
2018-09-14T07:01:43.843Z,2104.00
2018-09-14T07:03:37.150Z,2108.00
2018-09-14T07:04:37.105Z,2128.00
2018-09-14T07:06:30.049Z,2156.00
2018-09-14T07:07:29.935Z,2180.00
2018-09-14T07:09:23.255Z,2196.00
2018-09-14T07:10:23.207Z,2208.00
2018-09-14T07:12:16.499Z,2268.00
2018-09-14T07:13:16.488Z,2316.00
2018-09-14T07:15:09.298Z,2380.00
2018-09-14T07:16:09.235Z,2416.00
2018-09-14T07:18:02.044Z,2464.00
2018-09-14T07:19:02.003Z,2472.00
2018-09-14T07:20:55.345Z,2468.00
2018-09-14T07:21:55.398Z,2476.00
2018-09-14T07:23:48.092Z,2536.00
2018-09-14T07:24:48.227Z,2572.00
2018-09-14T07:26:40.872Z,2604.00
2018-09-14T07:27:40.828Z,2608.00
2018-09-14T07:29:33.634Z,2612.00
2018-09-14T07:30:33.586Z,2612.00
2018-09-14T07:32:26.926Z,2624.00
2018-09-14T07:33:26.850Z,2636.00
2018-09-14T07:35:20.179Z,2672.00
2018-09-14T07:36:20.121Z,2712.00
2018-09-14T07:38:13.449Z,2788.00
2018-09-14T07:39:13.399Z,2832.00
2018-09-14T07:41:06.221Z,2892.00
2018-09-14T07:42:06.158Z,2916.00
2018-09-14T07:43:58.985Z,2976.00
2018-09-14T07:44:58.940Z,3024.00
2018-09-14T07:46:51.756Z,3132.00
2018-09-14T07:47:51.710Z,3192.00
2018-09-14T07:49:45.001Z,3272.00
2018-09-14T07:50:44.970Z,3304.00
2018-09-14T07:52:37.792Z,3360.00
2018-09-14T07:53:37.734Z,3384.00
2018-09-14T07:55:31.106Z,3440.00
2018-09-14T07:56:31.016Z,3476.00
2018-09-14T07:58:24.337Z,3516.00
2018-09-14T07:59:24.287Z,3528.00
2018-09-14T08:01:17.163Z,3560.00
2018-09-14T08:02:17.057Z,3596.00
2018-09-14T08:04:10.356Z,3680.00
2018-09-14T08:05:10.321Z,3732.00
2018-09-14T08:07:03.136Z,3824.00
2018-09-14T08:08:03.091Z,3876.00
2018-09-14T08:09:55.896Z,3992.00
2018-09-14T08:10:55.857Z,4064.00
2018-09-14T08:12:48.688Z,4168.00
2018-09-14T08:13:48.646Z,4224.00
2018-09-14T08:15:41.943Z,4300.00
2018-09-14T08:16:41.907Z,4352.00
2018-09-14T08:18:35.255Z,4432.00
2018-09-14T08:19:35.197Z,4468.00
2018-09-14T08:21:28.564Z,4540.00
2018-09-14T08:22:28.462Z,4576.00
2018-09-14T08:24:21.769Z,4660.00
2018-09-14T08:25:21.744Z,4708.00
2018-09-14T08:27:15.075Z,4788.00
2018-09-14T08:28:15.004Z,4832.00
2018-09-14T08:30:08.303Z,4932.00
2018-09-14T08:31:08.267Z,4980.00
2018-09-14T08:33:01.083Z,5076.00
2018-09-14T08:34:01.032Z,5120.00
2018-09-14T08:35:54.337Z,5220.00
2018-09-14T08:36:54.307Z,5260.00
2018-09-14T08:38:47.642Z,5364.00
2018-09-14T08:39:47.583Z,5424.00
2018-09-14T08:41:40.391Z,5540.00
2018-09-14T08:42:40.366Z,5616.00
2018-09-14T08:44:33.678Z,5744.00
2018-09-14T08:45:33.624Z,5808.00
2018-09-14T08:47:26.957Z,5900.00
2018-09-14T08:48:26.892Z,5940.00
2018-09-14T08:50:20.199Z,6024.00
2018-09-14T08:51:20.179Z,6084.00
2018-09-14T08:53:13.480Z,6208.00
2018-09-14T08:54:13.443Z,6268.00
2018-09-14T08:56:06.743Z,6372.00
2018-09-14T08:57:06.703Z,6440.00
2018-09-14T08:59:00.025Z,6584.00
2018-09-14T08:59:59.975Z,6640.00
2018-09-14T09:01:53.297Z,6768.00
2018-09-14T09:02:53.245Z,6824.00
2018-09-14T09:04:46.578Z,6936.00
2018-09-14T09:05:46.514Z,7008.00
2018-09-14T09:07:39.347Z,7096.00
2018-09-14T09:08:39.314Z,7152.00
2018-09-14T09:10:32.613Z,7252.00
2018-09-14T09:11:32.636Z,7288.00
2018-09-14T09:13:25.883Z,7428.00
2018-09-14T09:14:25.845Z,7444.00
2018-09-14T09:16:19.164Z,7564.00
2018-09-14T09:17:19.115Z,7608.00
2018-09-14T09:19:12.472Z,7728.00
2018-09-14T09:20:12.390Z,7804.00
2018-09-14T09:22:05.708Z,7948.00
2018-09-14T09:23:05.665Z,8040.00
2018-09-14T09:24:59.013Z,8304.00
2018-09-14T09:25:58.964Z,8436.00
2018-09-14T09:27:52.278Z,8544.00
2018-09-14T09:28:52.240Z,8580.00
2018-09-14T09:30:45.556Z,8644.00
2018-09-14T09:31:45.523Z,8700.00
2018-09-14T09:33:38.828Z,8852.00
2018-09-14T09:34:38.805Z,8936.00
2018-09-14T09:36:31.609Z,9112.00
2018-09-14T09:37:31.580Z,9244.00
2018-09-14T09:39:24.958Z,9352.00
2018-09-14T09:40:24.865Z,9488.00
2018-09-14T09:42:18.183Z,9632.00
2018-09-14T09:43:18.273Z,9660.00
2018-09-14T09:45:11.471Z,17504.00
2018-09-14T09:46:11.425Z,28992.00
2018-09-14T09:48:04.243Z,31136.00
2018-09-14T09:49:04.216Z,31616.00
2018-09-14T09:50:57.612Z,31840.00
2018-09-14T09:51:57.499Z,31616.00
2018-09-14T09:53:50.825Z,31264.00
2018-09-14T09:54:50.779Z,30304.00
2018-09-14T09:56:44.150Z,29440.00
2018-09-14T09:57:44.070Z,30496.00
2018-09-14T09:59:37.386Z,31968.00
2018-09-14T10:00:37.346Z,32768.00
2018-09-14T10:02:30.689Z,33024.00
2018-09-14T10:03:30.659Z,33088.00
2018-09-14T10:05:23.977Z,33376.00
2018-09-14T10:06:23.945Z,33888.00
2018-09-14T10:08:17.252Z,36064.00
2018-09-14T10:09:17.225Z,36896.00
2018-09-14T10:11:10.569Z,35616.00
2018-09-14T10:12:10.526Z,35328.00
2018-09-14T10:14:03.904Z,34976.00
2018-09-14T10:15:03.853Z,36064.00
2018-09-14T10:16:57.172Z,36896.00
2018-09-14T10:17:57.121Z,35648.00
2018-09-14T10:19:50.543Z,15156.00
2018-09-14T10:20:50.553Z,15656.00
2018-09-14T10:22:43.762Z,11824.00
2018-09-14T10:23:43.721Z,29312.00
2018-09-14T10:25:37.052Z,12360.00
2018-09-14T10:26:37.024Z,37248.00
2018-09-14T10:28:30.373Z,36768.00
2018-09-14T10:29:30.322Z,37696.00
2018-09-14T10:31:24.667Z,11868.00
2018-09-14T10:32:24.622Z,11912.00
2018-09-14T10:34:17.963Z,30816.00
2018-09-14T10:35:17.941Z,39360.00
2018-09-14T10:37:11.277Z,7752.00
2018-09-14T10:38:11.238Z,7196.00
2018-09-14T10:40:05.573Z,7828.00
2018-09-14T10:41:05.545Z,9240.00
2018-09-14T10:42:58.883Z,38816.00
2018-09-14T10:43:58.843Z,39200.00
2018-09-14T10:45:52.153Z,35680.00
2018-09-14T10:46:52.137Z,14924.00
2018-09-14T10:48:45.525Z,10984.00
2018-09-14T10:49:45.428Z,23712.00
2018-09-14T10:51:38.756Z,7352.00
2018-09-14T10:52:38.733Z,6152.00
2018-09-14T10:54:32.213Z,5496.00
2018-09-14T10:55:32.166Z,5080.00
2018-09-14T10:57:25.482Z,4804.00
2018-09-14T10:58:25.460Z,4992.00
2018-09-14T11:00:18.794Z,5692.00
2018-09-14T11:01:18.752Z,6660.00
2018-09-14T11:03:12.103Z,12680.00
2018-09-14T11:04:12.048Z,34976.00
2018-09-14T11:06:05.398Z,25792.00
2018-09-14T11:07:05.441Z,32864.00
2018-09-14T11:08:59.684Z,11760.00
2018-09-14T11:09:59.695Z,24992.00
2018-09-14T11:11:52.973Z,31040.00
2018-09-14T11:12:52.969Z,29760.00
2018-09-14T11:14:46.303Z,7288.00
2018-09-14T11:15:46.247Z,7252.00
2018-09-14T11:17:39.559Z,7652.00
2018-09-14T11:18:39.596Z,8472.00
2018-09-14T11:20:32.926Z,16360.00
2018-09-14T11:21:32.823Z,28960.00
2018-09-14T11:23:26.150Z,31712.00
2018-09-14T11:24:26.118Z,30944.00
2018-09-14T11:26:19.459Z,29632.00
2018-09-14T11:27:19.423Z,29792.00
2018-09-14T11:29:12.764Z,23072.00
2018-09-14T11:30:12.745Z,14820.00
2018-09-14T11:32:06.068Z,10224.00
2018-09-14T11:33:06.049Z,9832.00
2018-09-14T11:34:59.403Z,9564.00
2018-09-14T11:35:59.341Z,8940.00
2018-09-14T11:37:52.707Z,8524.00
2018-09-14T11:38:52.689Z,8272.00
2018-09-14T11:40:46.004Z,9256.00
2018-09-14T11:41:45.949Z,10044.00
2018-09-14T11:43:39.250Z,13088.00
2018-09-14T11:44:39.240Z,21216.00
2018-09-14T11:46:32.611Z,17120.00
2018-09-14T11:47:32.568Z,23744.00
2018-09-14T11:49:25.884Z,23648.00
2018-09-14T11:50:25.845Z,23616.00
2018-09-14T11:52:19.296Z,21984.00
2018-09-14T11:53:19.134Z,21696.00
2018-09-14T11:55:12.475Z,21792.00
2018-09-14T11:56:12.435Z,21088.00
2018-09-14T11:58:05.772Z,19936.00
2018-09-14T11:59:05.728Z,19776.00
2018-09-14T12:00:59.075Z,19616.00
2018-09-14T12:01:59.046Z,19200.00
2018-09-14T12:03:52.364Z,18304.00
2018-09-14T12:04:52.344Z,18336.00
2018-09-14T12:06:45.684Z,17888.00
2018-09-14T12:07:45.655Z,7532.00
2018-09-14T12:09:38.961Z,6780.00
2018-09-14T12:10:38.946Z,6272.00
2018-09-14T12:12:32.309Z,10528.00
2018-09-14T12:13:32.294Z,15108.00
2018-09-14T12:15:25.593Z,13212.00
2018-09-14T12:16:25.555Z,14856.00
2018-09-14T12:18:18.881Z,16064.00
2018-09-14T12:19:18.850Z,11420.00
2018-09-14T12:21:12.195Z,14716.00
2018-09-14T12:22:12.209Z,17280.00
2018-09-14T12:24:05.496Z,16832.00
2018-09-14T12:25:05.477Z,13880.00
2018-09-14T12:26:58.794Z,11652.00
2018-09-14T12:27:58.780Z,13640.00
2018-09-14T12:29:52.081Z,15024.00
2018-09-14T12:30:52.057Z,15132.00
2018-09-14T12:32:45.400Z,11984.00
2018-09-14T12:33:45.367Z,10688.00
2018-09-14T12:35:38.761Z,11588.00
2018-09-14T12:36:38.672Z,14792.00
2018-09-14T12:38:32.021Z,7220.00
2018-09-14T12:39:31.968Z,12232.00
2018-09-14T12:41:25.298Z,12988.00
2018-09-14T12:42:25.288Z,6928.00
2018-09-14T12:44:18.595Z,7024.00
2018-09-14T12:45:18.557Z,12960.00
2018-09-14T12:47:11.888Z,11968.00
2018-09-14T12:48:11.877Z,10524.00
2018-09-14T12:50:05.188Z,10596.00
2018-09-14T12:51:05.152Z,10356.00
2018-09-14T12:52:58.477Z,9372.00
2018-09-14T12:53:58.429Z,6668.00
2018-09-14T12:55:51.892Z,6544.00
2018-09-14T12:56:51.748Z,6724.00
2018-09-14T12:58:45.085Z,9500.00
2018-09-14T12:59:45.039Z,8980.00
2018-09-14T13:01:38.368Z,8040.00
2018-09-14T13:02:38.338Z,7964.00
2018-09-14T13:04:31.663Z,7568.00
2018-09-14T13:05:31.663Z,8432.00
2018-09-14T13:07:24.953Z,7708.00
2018-09-14T13:08:24.918Z,7752.00
2018-09-14T13:10:18.235Z,7860.00
2018-09-14T13:11:18.209Z,8080.00
2018-09-14T13:13:12.589Z,8408.00
2018-09-14T13:14:12.521Z,7904.00
2018-09-14T13:16:06.826Z,7660.00
2018-09-14T13:17:06.838Z,7656.00
2018-09-14T13:19:01.153Z,6876.00
2018-09-14T13:20:01.114Z,7156.00
2018-09-14T13:21:55.421Z,7080.00
2018-09-14T13:22:55.408Z,7564.00
2018-09-14T13:24:48.715Z,7532.00
2018-09-14T13:25:48.679Z,8424.00
2018-09-14T13:27:41.990Z,5708.00
2018-09-14T13:28:41.969Z,7500.00
2018-09-14T13:30:35.353Z,7132.00
2018-09-14T13:31:35.268Z,9064.00
2018-09-14T13:33:28.616Z,8344.00
2018-09-14T13:34:28.575Z,6616.00
2018-09-14T13:36:22.894Z,5916.00
2018-09-14T13:37:22.855Z,5660.00
2018-09-14T13:39:16.200Z,6244.00
2018-09-14T13:40:16.150Z,6112.00
2018-09-14T13:42:09.476Z,9916.00
2018-09-14T13:43:09.443Z,9116.00
2018-09-14T13:45:02.821Z,8096.00
2018-09-14T13:46:02.750Z,7764.00
2018-09-14T13:47:56.086Z,8480.00
2018-09-14T13:48:56.074Z,8112.00
2018-09-14T13:50:49.393Z,8084.00
2018-09-14T13:51:49.344Z,7412.00
2018-09-14T13:53:42.741Z,9172.00
2018-09-14T13:54:42.661Z,9320.00
2018-09-14T13:56:35.979Z,9096.00
2018-09-14T13:57:35.946Z,8996.00
2018-09-14T13:59:29.310Z,8376.00
2018-09-14T14:00:29.239Z,7952.00
2018-09-14T14:02:22.580Z,7516.00
2018-09-14T14:03:22.546Z,8480.00
2018-09-14T14:05:15.911Z,8312.00
2018-09-14T14:06:15.859Z,8176.00
2018-09-14T14:08:09.223Z,7792.00
2018-09-14T14:09:09.181Z,7784.00
2018-09-14T14:11:02.514Z,7464.00
2018-09-14T14:12:02.469Z,7448.00
2018-09-14T14:13:56.805Z,7752.00
2018-09-14T14:14:56.765Z,7824.00
2018-09-14T14:16:50.127Z,3900.00
2018-09-14T14:17:50.080Z,7188.00
2018-09-14T14:19:43.412Z,7212.00
2018-09-14T14:20:43.379Z,7104.00
2018-09-14T14:22:36.737Z,7096.00
2018-09-14T14:23:36.671Z,7116.00
2018-09-14T14:25:31.986Z,6460.00
2018-09-14T14:26:31.971Z,6548.00
2018-09-14T14:28:25.307Z,6312.00
2018-09-14T14:29:25.343Z,6408.00
2018-09-14T14:31:18.606Z,7160.00
2018-09-14T14:32:18.563Z,7100.00
2018-09-14T14:34:11.883Z,6876.00
2018-09-14T14:35:11.868Z,6792.00
2018-09-14T14:37:05.198Z,7020.00
2018-09-14T14:38:05.156Z,7076.00
2018-09-14T14:39:58.490Z,6976.00
2018-09-14T14:40:58.487Z,6588.00
2018-09-14T14:42:51.812Z,6232.00
2018-09-14T14:43:51.781Z,6276.00
2018-09-14T14:45:45.084Z,6484.00
2018-09-14T14:46:45.091Z,6684.00
2018-09-14T14:48:38.382Z,6700.00
2018-09-14T14:49:38.348Z,6908.00
2018-09-14T14:51:31.658Z,6988.00
2018-09-14T14:52:31.642Z,6704.00
2018-09-14T14:54:24.974Z,6808.00
2018-09-14T14:55:24.921Z,6716.00
2018-09-14T14:57:18.279Z,6092.00
2018-09-14T14:58:18.237Z,5872.00
2018-09-14T15:00:11.579Z,5784.00
2018-09-14T15:01:11.514Z,5764.00
2018-09-14T15:03:05.897Z,5748.00
2018-09-14T15:04:05.808Z,5760.00
2018-09-14T15:05:59.122Z,5740.00
2018-09-14T15:06:59.113Z,5672.00
2018-09-14T15:08:52.431Z,5236.00
2018-09-14T15:09:52.507Z,5244.00
2018-09-14T15:11:45.733Z,5252.00
2018-09-14T15:12:45.705Z,5124.00
2018-09-14T15:14:39.045Z,4776.00
2018-09-14T15:15:38.988Z,4936.00
2018-09-14T15:17:32.347Z,5004.00
2018-09-14T15:18:32.310Z,4960.00
2018-09-14T15:20:25.603Z,4920.00
2018-09-14T15:21:25.585Z,4856.00
2018-09-14T15:23:18.917Z,4840.00
2018-09-14T15:24:18.867Z,4768.00
2018-09-14T15:26:12.195Z,4852.00
2018-09-14T15:27:12.171Z,4836.00
2018-09-14T15:29:05.547Z,4416.00
2018-09-14T15:30:05.469Z,4540.00
2018-09-14T15:31:58.785Z,4752.00
2018-09-14T15:32:58.758Z,4504.00
2018-09-14T15:34:52.124Z,5040.00
2018-09-14T15:35:52.045Z,5024.00
2018-09-14T15:37:45.364Z,4940.00
2018-09-14T15:38:45.341Z,5044.00
2018-09-14T15:40:38.698Z,4884.00
2018-09-14T15:41:38.635Z,4848.00
2018-09-14T15:43:31.958Z,4928.00
2018-09-14T15:44:31.920Z,5016.00
2018-09-14T15:46:25.258Z,4780.00
2018-09-14T15:47:25.240Z,4464.00
2018-09-14T15:49:18.592Z,4076.00
2018-09-14T15:50:18.503Z,4356.00
2018-09-14T15:52:11.824Z,4568.00
2018-09-14T15:53:11.820Z,4552.00
2018-09-14T15:55:05.130Z,4424.00
2018-09-14T15:56:05.085Z,4336.00
2018-09-14T15:57:58.403Z,4208.00
2018-09-14T15:58:58.370Z,4204.00
2018-09-14T16:00:51.719Z,4084.00
2018-09-14T16:01:51.665Z,3608.00
2018-09-14T16:03:45.011Z,3292.00
2018-09-14T16:04:44.984Z,3352.00
2018-09-14T16:06:38.295Z,2388.00
2018-09-14T16:07:38.261Z,2744.00
2018-09-14T16:09:32.589Z,3016.00
2018-09-14T16:10:32.531Z,3004.00
2018-09-14T16:12:25.882Z,2788.00
2018-09-14T16:13:25.852Z,2260.00
2018-09-14T16:15:19.166Z,2020.00
2018-09-14T16:16:19.146Z,2588.00
2018-09-14T16:18:12.437Z,2524.00
2018-09-14T16:19:12.401Z,2548.00
2018-09-14T16:21:05.751Z,2320.00
2018-09-14T16:22:05.716Z,1660.00
2018-09-14T16:23:59.022Z,1860.00
2018-09-14T16:24:58.985Z,1752.00
2018-09-14T16:26:52.315Z,2372.00
2018-09-14T16:27:52.267Z,2612.00
2018-09-14T16:29:45.588Z,2560.00
2018-09-14T16:30:45.555Z,2096.00
2018-09-14T16:32:38.886Z,2384.00
2018-09-14T16:33:38.850Z,2124.00
2018-09-14T16:35:32.173Z,1960.00
2018-09-14T16:36:32.117Z,1808.00
2018-09-14T16:38:25.451Z,1768.00
2018-09-14T16:39:25.410Z,1852.00
2018-09-14T16:41:18.769Z,1512.00
2018-09-14T16:42:18.717Z,1456.00
2018-09-14T16:44:12.043Z,1324.00
2018-09-14T16:45:12.013Z,1296.00
2018-09-14T16:47:05.337Z,1056.00
2018-09-14T16:48:05.291Z,924.00
2018-09-14T16:49:58.598Z,820.00
2018-09-14T16:50:58.579Z,788.00
2018-09-14T16:52:51.887Z,792.00
2018-09-14T16:53:51.867Z,772.00
2018-09-14T16:55:45.176Z,752.00
2018-09-14T16:56:45.138Z,748.00
2018-09-14T16:58:38.472Z,724.00
2018-09-14T16:59:38.423Z,704.00
2018-09-14T17:01:31.762Z,668.00
2018-09-14T17:02:31.724Z,656.00
2018-09-14T17:04:25.013Z,644.00
2018-09-14T17:05:25.001Z,640.00
2018-09-14T17:07:18.336Z,608.00
2018-09-14T17:08:18.287Z,604.00
2018-09-14T17:10:11.596Z,620.00
2018-09-14T17:11:11.558Z,624.00
2018-09-14T17:13:04.877Z,608.00
2018-09-14T17:14:04.839Z,596.00
2018-09-14T17:15:58.168Z,564.00
2018-09-14T17:16:58.127Z,548.00
2018-09-14T17:18:51.459Z,512.00
2018-09-14T17:19:51.432Z,488.00
2018-09-14T17:21:44.741Z,440.00
2018-09-14T17:22:44.709Z,416.00
2018-09-14T17:24:38.056Z,372.00
2018-09-14T17:25:37.997Z,348.00
2018-09-14T17:27:31.355Z,304.00
2018-09-14T17:28:31.290Z,284.00
2018-09-14T17:30:24.610Z,252.00
2018-09-14T17:31:24.555Z,236.00
2018-09-14T17:33:17.888Z,212.00
2018-09-14T17:34:17.851Z,200.00
2018-09-14T17:36:11.163Z,180.00
2018-09-14T17:37:11.115Z,168.00
2018-09-14T17:39:04.456Z,148.00
2018-09-14T17:40:04.393Z,140.00
2018-09-14T17:41:57.710Z,120.00
2018-09-14T17:42:57.705Z,112.00
2018-09-14T17:44:51.001Z,96.00
2018-09-14T17:45:50.954Z,88.00
2018-09-14T17:47:44.277Z,72.00
2018-09-14T17:48:44.240Z,68.00
2018-09-14T17:50:37.573Z,56.00
2018-09-14T17:51:37.538Z,52.00
2018-09-14T17:53:30.854Z,40.00
2018-09-14T17:54:30.826Z,40.00
2018-09-14T17:56:24.142Z,32.00